sensor_id;sensor_type;location;lat;lon;timestamp;pressure;altitude;pressure_sealevel;temperature;humidity
18678;BME280;9469;51.114;13.914;2023-02-01T00:03:55;98554.38;;;4.38;100.00
18678;BME280;9469;51.114;13.914;2023-02-01T00:09:01;98557.00;;;4.32;100.00
18678;BME280;9469;51.114;13.914;2023-02-01T00:14:06;98563.59;;;4.30;100.00
18678;BME280;9469;51.114;13.914;2023-02-01T00:19:15;98565.19;;;4.36;100.00
18678;BME280;9469;51.114;13.914;2023-02-01T00:24:20;98567.31;;;4.34;100.00
18678;BME280;9469;51.114;13.914;2023-02-01T00:29:25;98571.50;;;4.35;100.00
18678;BME280;9469;51.114;13.914;2023-02-01T00:34:33;98570.97;;;4.28;100.00
18678;BME280;9469;51.114;13.914;2023-02-01T00:39:38;98564.13;;;4.42;100.00
18678;BME280;9469;51.114;13.914;2023-02-01T00:44:45;98565.19;;;4.36;100.00
18678;BME280;9469;51.114;13.914;2023-02-01T00:49:53;98570.44;;;4.41;100.00
18678;BME280;9469;51.114;13.914;2023-02-01T00:54:57;98572.56;;;4.54;100.00
18678;BME280;9469;51.114;13.914;2023-02-01T01:00:03;98572.28;;;4.46;100.00
18678;BME280;9469;51.114;13.914;2023-02-01T01:05:15;98573.09;;;4.46;100.00
18678;BME280;9469;51.114;13.914;2023-02-01T01:10:20;98563.09;;;4.43;100.00
18678;BME280;9469;51.114;13.914;2023-02-01T01:15:25;98581.00;;;4.36;100.00
18678;BME280;9469;51.114;13.914;2023-02-01T01:20:34;98576.25;;;4.38;100.00
18678;BME280;9469;51.114;13.914;2023-02-01T01:25:40;98579.13;;;4.36;100.00
18678;BME280;9469;51.114;13.914;2023-02-01T01:30:45;98565.44;;;4.34;100.00
18678;BME280;9469;51.114;13.914;2023-02-01T01:35:53;98576.78;;;4.35;100.00
18678;BME280;9469;51.114;13.914;2023-02-01T01:40:59;98580.47;;;4.44;100.00
18678;BME280;9469;51.114;13.914;2023-02-01T01:46:04;98567.81;;;4.36;100.00
18678;BME280;9469;51.114;13.914;2023-02-01T01:51:13;98574.13;;;4.35;100.00
18678;BME280;9469;51.114;13.914;2023-02-01T01:56:19;98567.03;;;4.51;100.00
18678;BME280;9469;51.114;13.914;2023-02-01T02:01:24;98567.56;;;4.43;100.00
18678;BME280;9469;51.114;13.914;2023-02-01T02:06:40;98569.91;;;4.39;100.00
18678;BME280;9469;51.114;13.914;2023-02-01T02:11:49;98568.88;;;4.50;100.00
18678;BME280;9469;51.114;13.914;2023-02-01T02:17:03;98559.13;;;4.35;100.00
18678;BME280;9469;51.114;13.914;2023-02-01T02:22:44;98562.28;;;4.43;100.00
18678;BME280;9469;51.114;13.914;2023-02-01T02:28:01;98543.31;;;4.51;100.00
18678;BME280;9469;51.114;13.914;2023-02-01T02:33:44;98540.16;;;4.54;100.00
18678;BME280;9469;51.114;13.914;2023-02-01T02:38:57;98538.84;;;4.41;100.00
18678;BME280;9469;51.114;13.914;2023-02-01T02:44:13;98516.97;;;4.46;100.00
18678;BME280;9469;51.114;13.914;2023-02-01T02:49:42;98518.84;;;4.45;100.00
18678;BME280;9469;51.114;13.914;2023-02-01T02:55:10;98518.03;;;4.45;100.00
18678;BME280;9469;51.114;13.914;2023-02-01T03:00:20;98528.31;;;4.36;100.00
18678;BME280;9469;51.114;13.914;2023-02-01T03:05:46;98540.94;;;4.24;100.00
18678;BME280;9469;51.114;13.914;2023-02-01T03:10:58;98536.75;;;4.38;100.00
18678;BME280;9469;51.114;13.914;2023-02-01T03:16:09;98543.84;;;4.27;100.00
18678;BME280;9469;51.114;13.914;2023-02-01T03:21:24;98539.91;;;4.40;100.00
18678;BME280;9469;51.114;13.914;2023-02-01T03:26:31;98542.53;;;4.30;100.00
18678;BME280;9469;51.114;13.914;2023-02-01T03:31:41;98540.97;;;4.29;100.00
18678;BME280;9469;51.114;13.914;2023-02-01T03:36:52;98532.00;;;4.35;100.00
18678;BME280;9469;51.114;13.914;2023-02-01T03:42:02;98524.63;;;4.52;100.00
18678;BME280;9469;51.114;13.914;2023-02-01T03:47:11;98525.94;;;4.40;100.00
18678;BME280;9469;51.114;13.914;2023-02-01T03:52:32;98528.31;;;4.41;100.00
18678;BME280;9469;51.114;13.914;2023-02-01T03:57:45;98520.94;;;4.53;100.00
18678;BME280;9469;51.114;13.914;2023-02-01T04:02:51;98510.16;;;4.50;100.00
18678;BME280;9469;51.114;13.914;2023-02-01T04:08:00;98518.81;;;4.50;100.00
18678;BME280;9469;51.114;13.914;2023-02-01T04:13:07;98502.75;;;4.42;100.00
18678;BME280;9469;51.114;13.914;2023-02-01T04:18:12;98507.78;;;4.43;100.00
18678;BME280;9469;51.114;13.914;2023-02-01T04:23:19;98504.59;;;4.56;100.00
18678;BME280;9469;51.114;13.914;2023-02-01T04:28:24;98497.22;;;4.48;100.00
18678;BME280;9469;51.114;13.914;2023-02-01T04:33:31;98474.84;;;4.61;100.00
18678;BME280;9469;51.114;13.914;2023-02-01T04:38:39;98462.75;;;4.40;100.00
18678;BME280;9469;51.114;13.914;2023-02-01T04:43:46;98466.16;;;4.45;100.00
18678;BME280;9469;51.114;13.914;2023-02-01T04:48:53;98462.47;;;4.51;100.00
18678;BME280;9469;51.114;13.914;2023-02-01T04:54:00;98460.91;;;4.45;100.00
18678;BME280;9469;51.114;13.914;2023-02-01T04:59:11;98466.69;;;4.52;100.00
18678;BME280;9469;51.114;13.914;2023-02-01T05:04:16;98454.84;;;4.45;100.00
18678;BME280;9469;51.114;13.914;2023-02-01T05:09:25;98453.47;;;4.57;100.00
18678;BME280;9469;51.114;13.914;2023-02-01T05:14:30;98451.41;;;4.49;100.00
18678;BME280;9469;51.114;13.914;2023-02-01T05:19:36;98440.06;;;4.49;100.00
18678;BME280;9469;51.114;13.914;2023-02-01T05:24:44;98436.41;;;4.45;100.00
18678;BME280;9469;51.114;13.914;2023-02-01T05:29:49;98419.28;;;4.52;100.00
18678;BME280;9469;51.114;13.914;2023-02-01T05:34:56;98419.00;;;4.59;100.00
18678;BME280;9469;51.114;13.914;2023-02-01T05:40:04;98418.50;;;4.42;100.00
18678;BME280;9469;51.114;13.914;2023-02-01T05:45:10;98408.47;;;4.49;100.00
18678;BME280;9469;51.114;13.914;2023-02-01T05:50:16;98422.16;;;4.61;98.70
18678;BME280;9469;51.114;13.914;2023-02-01T05:55:32;98411.91;;;4.54;99.53
18678;BME280;9469;51.114;13.914;2023-02-01T06:00:37;98407.38;;;4.60;100.00
18678;BME280;9469;51.114;13.914;2023-02-01T06:05:43;98409.47;;;4.68;100.00
18678;BME280;9469;51.114;13.914;2023-02-01T06:10:57;98407.91;;;4.62;100.00
18678;BME280;9469;51.114;13.914;2023-02-01T06:16:09;98411.38;;;4.47;100.00
18678;BME280;9469;51.114;13.914;2023-02-01T06:21:17;98402.97;;;4.30;100.00
18678;BME280;9469;51.114;13.914;2023-02-01T06:26:30;98397.19;;;4.43;100.00
18678;BME280;9469;51.114;13.914;2023-02-01T06:31:36;98403.78;;;4.25;100.00
18678;BME280;9469;51.114;13.914;2023-02-01T06:36:42;98389.28;;;4.33;100.00
18678;BME280;9469;51.114;13.914;2023-02-01T06:41:49;98400.88;;;4.32;100.00
18678;BME280;9469;51.114;13.914;2023-02-01T06:46:54;98401.88;;;4.51;100.00
18678;BME280;9469;51.114;13.914;2023-02-01T06:52:00;98397.19;;;4.38;100.00
18678;BME280;9469;51.114;13.914;2023-02-01T06:57:08;98398.47;;;4.46;100.00
18678;BME280;9469;51.114;13.914;2023-02-01T07:02:13;98383.44;;;4.46;100.00
18678;BME280;9469;51.114;13.914;2023-02-01T07:07:23;98396.84;;;4.55;100.00
18678;BME280;9469;51.114;13.914;2023-02-01T07:12:35;98380.81;;;4.51;100.00
18678;BME280;9469;51.114;13.914;2023-02-01T07:17:42;98386.09;;;4.46;100.00
18678;BME280;9469;51.114;13.914;2023-02-01T07:22:48;98376.63;;;4.40;100.00
18678;BME280;9469;51.114;13.914;2023-02-01T07:28:06;98374.81;;;4.35;100.00
18678;BME280;9469;51.114;13.914;2023-02-01T07:33:32;98379.06;;;4.06;100.00
18678;BME280;9469;51.114;13.914;2023-02-01T07:38:37;98373.56;;;3.83;100.00
18678;BME280;9469;51.114;13.914;2023-02-01T07:43:45;98378.31;;;3.86;100.00
18678;BME280;9469;51.114;13.914;2023-02-01T07:48:52;98380.38;;;3.94;100.00
18678;BME280;9469;51.114;13.914;2023-02-01T07:53:57;98372.00;;;3.87;100.00
18678;BME280;9469;51.114;13.914;2023-02-01T07:59:05;98366.97;;;3.95;100.00
18678;BME280;9469;51.114;13.914;2023-02-01T08:04:11;98356.69;;;3.99;100.00
18678;BME280;9469;51.114;13.914;2023-02-01T08:09:20;98355.16;;;3.98;100.00
18678;BME280;9469;51.114;13.914;2023-02-01T08:14:30;98344.84;;;4.06;100.00
18678;BME280;9469;51.114;13.914;2023-02-01T08:19:36;98341.19;;;4.02;100.00
18678;BME280;9469;51.114;13.914;2023-02-01T08:24:42;98338.28;;;3.94;100.00
18678;BME280;9469;51.114;13.914;2023-02-01T08:29:49;98342.50;;;3.90;100.00
18678;BME280;9469;51.114;13.914;2023-02-01T08:34:56;98331.72;;;4.01;100.00
18678;BME280;9469;51.114;13.914;2023-02-01T08:40:01;98341.47;;;3.91;100.00
18678;BME280;9469;51.114;13.914;2023-02-01T08:45:11;98324.13;;;3.75;100.00
18678;BME280;9469;51.114;13.914;2023-02-01T08:50:18;98317.78;;;3.81;100.00
18678;BME280;9469;51.114;13.914;2023-02-01T08:55:24;98320.66;;;3.89;100.00
18678;BME280;9469;51.114;13.914;2023-02-01T09:00:32;98310.88;;;4.05;100.00
18678;BME280;9469;51.114;13.914;2023-02-01T09:05:37;98299.78;;;4.28;100.00
18678;BME280;9469;51.114;13.914;2023-02-01T09:10:50;98294.19;;;4.50;100.00
18678;BME280;9469;51.114;13.914;2023-02-01T09:15:57;98305.16;;;4.62;100.00
18678;BME280;9469;51.114;13.914;2023-02-01T09:21:04;98307.53;;;4.63;100.00
18678;BME280;9469;51.114;13.914;2023-02-01T09:26:12;98298.78;;;4.73;100.00
18678;BME280;9469;51.114;13.914;2023-02-01T09:31:23;98295.63;;;4.71;100.00
18678;BME280;9469;51.114;13.914;2023-02-01T09:36:29;98285.59;;;4.78;100.00
18678;BME280;9469;51.114;13.914;2023-02-01T09:41:53;98297.66;;;4.89;100.00
18678;BME280;9469;51.114;13.914;2023-02-01T09:47:11;98299.88;;;4.67;100.00
18678;BME280;9469;51.114;13.914;2023-02-01T09:52:19;98293.69;;;4.43;100.00
18678;BME280;9469;51.114;13.914;2023-02-01T09:57:40;98318.25;;;4.08;100.00
18678;BME280;9469;51.114;13.914;2023-02-01T10:02:54;98324.38;;;3.78;100.00
18678;BME280;9469;51.114;13.914;2023-02-01T10:08:04;98337.78;;;3.67;100.00
18678;BME280;9469;51.114;13.914;2023-02-01T10:13:34;98330.97;;;3.40;100.00
18678;BME280;9469;51.114;13.914;2023-02-01T10:19:13;98340.94;;;3.38;100.00
18678;BME280;9469;51.114;13.914;2023-02-01T10:24:36;98348.84;;;3.43;100.00
18678;BME280;9469;51.114;13.914;2023-02-01T10:29:46;98327.28;;;3.46;100.00
18678;BME280;9469;51.114;13.914;2023-02-01T10:34:57;98363.03;;;3.47;100.00
18678;BME280;9469;51.114;13.914;2023-02-01T10:40:15;98360.94;;;3.49;100.00
18678;BME280;9469;51.114;13.914;2023-02-01T10:45:24;98352.78;;;3.51;100.00
18678;BME280;9469;51.114;13.914;2023-02-01T10:50:40;98364.34;;;3.60;100.00
18678;BME280;9469;51.114;13.914;2023-02-01T10:55:49;98371.47;;;3.64;100.00
18678;BME280;9469;51.114;13.914;2023-02-01T11:00:58;98375.41;;;3.67;100.00
18678;BME280;9469;51.114;13.914;2023-02-01T11:06:17;98377.53;;;3.75;100.00
18678;BME280;9469;51.114;13.914;2023-02-01T11:11:23;98375.91;;;4.04;100.00
18678;BME280;9469;51.114;13.914;2023-02-01T11:16:37;98373.53;;;4.08;100.00
18678;BME280;9469;51.114;13.914;2023-02-01T11:21:49;98378.25;;;4.26;100.00
18678;BME280;9469;51.114;13.914;2023-02-01T11:26:56;98376.91;;;4.28;100.00
18678;BME280;9469;51.114;13.914;2023-02-01T11:32:02;98373.97;;;4.50;100.00
18678;BME280;9469;51.114;13.914;2023-02-01T11:37:16;98366.59;;;4.47;100.00
18678;BME280;9469;51.114;13.914;2023-02-01T11:42:25;98366.84;;;4.56;100.00
18678;BME280;9469;51.114;13.914;2023-02-01T11:47:39;98359.97;;;4.60;100.00
18678;BME280;9469;51.114;13.914;2023-02-01T11:52:57;98349.41;;;4.65;100.00
18678;BME280;9469;51.114;13.914;2023-02-01T11:58:32;98346.28;;;4.53;100.00
18678;BME280;9469;51.114;13.914;2023-02-01T12:09:53;98344.81;;;4.26;100.00
18678;BME280;9469;51.114;13.914;2023-02-01T12:15:25;98328.78;;;4.18;100.00
18678;BME280;9469;51.114;13.914;2023-02-01T12:26:57;98317.06;;;4.54;100.00
18678;BME280;9469;51.114;13.914;2023-02-01T12:32:24;98304.41;;;4.56;100.00
18678;BME280;9469;51.114;13.914;2023-02-01T12:37:44;98320.72;;;4.63;100.00
18678;BME280;9469;51.114;13.914;2023-02-01T12:43:02;98328.03;;;4.71;100.00
18678;BME280;9469;51.114;13.914;2023-02-01T12:48:25;98321.16;;;4.80;100.00
18678;BME280;9469;51.114;13.914;2023-02-01T12:53:43;98314.28;;;4.84;100.00
18678;BME280;9469;51.114;13.914;2023-02-01T12:58:53;98304.81;;;4.78;100.00
18678;BME280;9469;51.114;13.914;2023-02-01T13:04:08;98303.16;;;4.97;100.00
18678;BME280;9469;51.114;13.914;2023-02-01T13:09:21;98305.47;;;5.04;100.00
18678;BME280;9469;51.114;13.914;2023-02-01T13:14:36;98307.38;;;4.93;100.00
18678;BME280;9469;51.114;13.914;2023-02-01T13:19:45;98304.66;;;5.08;100.00
18678;BME280;9469;51.114;13.914;2023-02-01T13:24:57;98289.09;;;5.07;100.00
18678;BME280;9469;51.114;13.914;2023-02-01T13:30:12;98297.38;;;5.29;100.00
18678;BME280;9469;51.114;13.914;2023-02-01T13:35:45;98292.56;;;5.36;100.00
18678;BME280;9469;51.114;13.914;2023-02-01T13:46:24;98283.81;;;5.41;100.00
18678;BME280;9469;51.114;13.914;2023-02-01T13:51:35;98281.41;;;5.49;100.00
18678;BME280;9469;51.114;13.914;2023-02-01T13:56:41;98280.59;;;5.49;100.00
18678;BME280;9469;51.114;13.914;2023-02-01T14:01:50;98284.34;;;5.43;100.00
18678;BME280;9469;51.114;13.914;2023-02-01T14:07:18;98275.81;;;5.56;100.00
18678;BME280;9469;51.114;13.914;2023-02-01T14:12:48;98279.53;;;5.50;100.00
18678;BME280;9469;51.114;13.914;2023-02-01T14:23:55;98272.09;;;5.57;100.00
18678;BME280;9469;51.114;13.914;2023-02-01T14:29:08;98262.88;;;5.54;100.00
18678;BME280;9469;51.114;13.914;2023-02-01T14:34:31;98258.84;;;5.62;100.00
18678;BME280;9469;51.114;13.914;2023-02-01T14:39:52;98269.22;;;5.53;100.00
18678;BME280;9469;51.114;13.914;2023-02-01T14:50:37;98252.28;;;5.59;99.25
18678;BME280;9469;51.114;13.914;2023-02-01T14:55:46;98255.94;;;5.63;97.94
18678;BME280;9469;51.114;13.914;2023-02-01T15:00:56;98270.78;;;5.54;98.43
18678;BME280;9469;51.114;13.914;2023-02-01T15:06:21;98267.94;;;5.51;98.21
18678;BME280;9469;51.114;13.914;2023-02-01T15:11:29;98260.84;;;5.46;99.08
18678;BME280;9469;51.114;13.914;2023-02-01T15:16:42;98242.34;;;5.51;98.89
18678;BME280;9469;51.114;13.914;2023-02-01T15:21:56;98244.22;;;5.46;98.90
18678;BME280;9469;51.114;13.914;2023-02-01T15:27:05;98249.78;;;5.44;100.00
18678;BME280;9469;51.114;13.914;2023-02-01T15:32:29;98230.25;;;5.17;100.00
18678;BME280;9469;51.114;13.914;2023-02-01T15:37:39;98211.34;;;5.04;100.00
18678;BME280;9469;51.114;13.914;2023-02-01T15:42:50;98202.84;;;5.13;100.00
18678;BME280;9469;51.114;13.914;2023-02-01T15:47:59;98199.53;;;5.02;100.00
18678;BME280;9469;51.114;13.914;2023-02-01T15:53:13;98182.13;;;5.01;100.00
18678;BME280;9469;51.114;13.914;2023-02-01T15:58:23;98170.44;;;5.12;100.00
18678;BME280;9469;51.114;13.914;2023-02-01T16:03:35;98157.50;;;5.16;100.00
18678;BME280;9469;51.114;13.914;2023-02-01T16:08:54;98157.34;;;5.02;100.00
18678;BME280;9469;51.114;13.914;2023-02-01T16:14:00;98152.31;;;5.05;100.00
18678;BME280;9469;51.114;13.914;2023-02-01T16:19:06;98131.34;;;5.19;99.74
18678;BME280;9469;51.114;13.914;2023-02-01T16:24:16;98132.72;;;5.12;100.00
18678;BME280;9469;51.114;13.914;2023-02-01T16:29:21;98128.13;;;4.98;100.00
18678;BME280;9469;51.114;13.914;2023-02-01T16:34:30;98131.44;;;4.80;100.00
18678;BME280;9469;51.114;13.914;2023-02-01T16:39:40;98108.84;;;4.74;100.00
18678;BME280;9469;51.114;13.914;2023-02-01T16:44:46;98148.97;;;4.61;100.00
18678;BME280;9469;51.114;13.914;2023-02-01T16:49:52;98196.56;;;4.31;100.00
18678;BME280;9469;51.114;13.914;2023-02-01T16:55:09;98178.03;;;4.02;100.00
18678;BME280;9469;51.114;13.914;2023-02-01T17:00:21;98193.88;;;3.82;100.00
18678;BME280;9469;51.114;13.914;2023-02-01T17:05:27;98202.13;;;3.45;100.00
18678;BME280;9469;51.114;13.914;2023-02-01T17:10:37;98141.19;;;3.18;100.00
18678;BME280;9469;51.114;13.914;2023-02-01T17:15:53;98145.94;;;2.81;100.00
18678;BME280;9469;51.114;13.914;2023-02-01T17:21:03;98163.56;;;2.96;100.00
18678;BME280;9469;51.114;13.914;2023-02-01T17:26:14;98192.44;;;2.85;100.00
18678;BME280;9469;51.114;13.914;2023-02-01T17:31:20;98202.16;;;2.95;100.00
18678;BME280;9469;51.114;13.914;2023-02-01T17:36:26;98207.97;;;3.07;100.00
18678;BME280;9469;51.114;13.914;2023-02-01T17:41:36;98215.81;;;3.22;100.00
18678;BME280;9469;51.114;13.914;2023-02-01T17:46:41;98233.97;;;3.04;100.00
18678;BME280;9469;51.114;13.914;2023-02-01T17:51:47;98213.72;;;2.84;100.00
18678;BME280;9469;51.114;13.914;2023-02-01T17:56:55;98237.88;;;2.81;100.00
18678;BME280;9469;51.114;13.914;2023-02-01T18:02:01;98244.97;;;2.85;100.00
18678;BME280;9469;51.114;13.914;2023-02-01T18:07:07;98269.41;;;2.71;100.00
18678;BME280;9469;51.114;13.914;2023-02-01T18:12:18;98275.69;;;2.70;100.00
18678;BME280;9469;51.114;13.914;2023-02-01T18:17:24;98280.16;;;2.74;100.00
18678;BME280;9469;51.114;13.914;2023-02-01T18:22:29;98276.97;;;2.62;100.00
18678;BME280;9469;51.114;13.914;2023-02-01T18:27:37;98276.50;;;2.75;100.00
18678;BME280;9469;51.114;13.914;2023-02-01T18:32:43;98277.75;;;2.53;100.00
18678;BME280;9469;51.114;13.914;2023-02-01T18:37:50;98270.41;;;2.55;100.00
18678;BME280;9469;51.114;13.914;2023-02-01T18:43:02;98278.31;;;2.70;100.00
18678;BME280;9469;51.114;13.914;2023-02-01T18:48:08;98284.63;;;2.69;100.00
18678;BME280;9469;51.114;13.914;2023-02-01T18:53:16;98284.09;;;2.77;100.00
18678;BME280;9469;51.114;13.914;2023-02-01T18:58:25;98284.38;;;2.75;100.00
18678;BME280;9469;51.114;13.914;2023-02-01T19:03:31;98283.59;;;2.85;100.00
18678;BME280;9469;51.114;13.914;2023-02-01T19:08:47;98271.25;;;2.90;100.00
18678;BME280;9469;51.114;13.914;2023-02-01T19:13:54;98272.06;;;2.91;100.00
18678;BME280;9469;51.114;13.914;2023-02-01T19:18:59;98267.34;;;2.98;100.00
18678;BME280;9469;51.114;13.914;2023-02-01T19:24:06;98271.53;;;3.04;100.00
18678;BME280;9469;51.114;13.914;2023-02-01T19:29:14;98276.25;;;2.92;100.00
18678;BME280;9469;51.114;13.914;2023-02-01T19:34:20;98278.59;;;2.99;100.00
18678;BME280;9469;51.114;13.914;2023-02-01T19:39:25;98282.28;;;2.87;100.00
18678;BME280;9469;51.114;13.914;2023-02-01T19:44:33;98279.66;;;2.82;100.00
18678;BME280;9469;51.114;13.914;2023-02-01T19:49:38;98292.28;;;2.90;100.00
18678;BME280;9469;51.114;13.914;2023-02-01T19:54:44;98302.53;;;2.97;100.00
18678;BME280;9469;51.114;13.914;2023-02-01T19:59:53;98293.06;;;2.91;100.00
18678;BME280;9469;51.114;13.914;2023-02-01T20:05:00;98295.72;;;2.96;100.00
18678;BME280;9469;51.114;13.914;2023-02-01T20:10:07;98308.53;;;2.87;100.00
18678;BME280;9469;51.114;13.914;2023-02-01T20:15:16;98319.81;;;2.73;100.00
18678;BME280;9469;51.114;13.914;2023-02-01T20:20:26;98325.81;;;2.53;100.00
18678;BME280;9469;51.114;13.914;2023-02-01T20:25:32;98317.16;;;2.68;100.00
18678;BME280;9469;51.114;13.914;2023-02-01T20:30:42;98318.50;;;2.80;100.00
18678;BME280;9469;51.114;13.914;2023-02-01T20:35:48;98339.75;;;2.74;100.00
18678;BME280;9469;51.114;13.914;2023-02-01T20:41:01;98345.03;;;2.69;100.00
18678;BME280;9469;51.114;13.914;2023-02-01T20:46:10;98334.25;;;2.70;100.00
18678;BME280;9469;51.114;13.914;2023-02-01T20:51:18;98346.09;;;2.73;100.00
18678;BME280;9469;51.114;13.914;2023-02-01T20:56:24;98348.72;;;2.73;100.00
18678;BME280;9469;51.114;13.914;2023-02-01T21:01:31;98344.75;;;2.70;100.00
18678;BME280;9469;51.114;13.914;2023-02-01T21:06:37;98339.75;;;2.74;100.00
18678;BME280;9469;51.114;13.914;2023-02-01T21:11:42;98337.44;;;2.82;100.00
18678;BME280;9469;51.114;13.914;2023-02-01T21:16:51;98342.16;;;2.85;100.00
18678;BME280;9469;51.114;13.914;2023-02-01T21:21:56;98339.75;;;2.74;100.00
18678;BME280;9469;51.114;13.914;2023-02-01T21:27:03;98346.63;;;2.85;100.00
18678;BME280;9469;51.114;13.914;2023-02-01T21:32:13;98337.22;;;3.04;100.00
18678;BME280;9469;51.114;13.914;2023-02-01T21:37:18;98331.41;;;2.92;100.00
18678;BME280;9469;51.114;13.914;2023-02-01T21:42:27;98329.31;;;2.84;100.00
18678;BME280;9469;51.114;13.914;2023-02-01T21:47:35;98344.53;;;2.92;100.00
18678;BME280;9469;51.114;13.914;2023-02-01T21:52:40;98340.63;;;2.95;100.00
18678;BME280;9469;51.114;13.914;2023-02-01T21:57:47;98337.22;;;2.99;100.00
18678;BME280;9469;51.114;13.914;2023-02-01T22:02:56;98353.53;;;3.06;100.00
18678;BME280;9469;51.114;13.914;2023-02-01T22:08:01;98374.53;;;3.06;100.00
18678;BME280;9469;51.114;13.914;2023-02-01T22:13:06;98367.69;;;3.00;100.00
18678;BME280;9469;51.114;13.914;2023-02-01T22:18:13;98367.72;;;3.05;100.00
18678;BME280;9469;51.114;13.914;2023-02-01T22:23:19;98370.34;;;3.00;100.00
18678;BME280;9469;51.114;13.914;2023-02-01T22:28:30;98371.41;;;3.14;100.00
18678;BME280;9469;51.114;13.914;2023-02-01T22:33:38;98380.88;;;3.05;100.00
18678;BME280;9469;51.114;13.914;2023-02-01T22:38:44;98387.94;;;3.05;100.00
18678;BME280;9469;51.114;13.914;2023-02-01T22:43:49;98394.22;;;2.99;100.00
18678;BME280;9469;51.114;13.914;2023-02-01T22:48:58;98390.28;;;3.01;100.00
18678;BME280;9469;51.114;13.914;2023-02-01T22:54:05;98397.66;;;3.04;100.00
18678;BME280;9469;51.114;13.914;2023-02-01T22:59:11;98385.56;;;2.98;100.00
18678;BME280;9469;51.114;13.914;2023-02-01T23:04:20;98392.41;;;3.04;100.00
18678;BME280;9469;51.114;13.914;2023-02-01T23:09:26;98387.69;;;3.06;100.00
18678;BME280;9469;51.114;13.914;2023-02-01T23:14:31;98398.22;;;3.11;100.00
18678;BME280;9469;51.114;13.914;2023-02-01T23:19:59;98394.03;;;3.20;100.00
18678;BME280;9469;51.114;13.914;2023-02-01T23:25:04;98394.81;;;3.21;100.00
18678;BME280;9469;51.114;13.914;2023-02-01T23:30:12;98398.22;;;3.21;100.00
18678;BME280;9469;51.114;13.914;2023-02-01T23:35:20;98404.00;;;3.18;100.00
18678;BME280;9469;51.114;13.914;2023-02-01T23:40:26;98410.84;;;3.19;100.00
18678;BME280;9469;51.114;13.914;2023-02-01T23:45:31;98420.59;;;3.29;100.00
18678;BME280;9469;51.114;13.914;2023-02-01T23:50:39;98417.69;;;3.25;100.00
18678;BME280;9469;51.114;13.914;2023-02-01T23:55:43;98420.88;;;3.32;100.00
